createdAt,value
2023-03-04T00:04:22.758Z,0.94
2023-03-04T00:09:45.862Z,0.97
2023-03-04T00:15:08.345Z,0.81
2023-03-04T00:20:30.190Z,0.87
2023-03-04T00:25:52.062Z,0.96
2023-03-04T00:31:13.912Z,1.14
2023-03-04T00:36:35.792Z,1.05
2023-03-04T00:41:57.689Z,1.13
2023-03-04T00:47:19.622Z,1.15
2023-03-04T00:52:41.622Z,1.20
2023-03-04T00:58:03.737Z,1.17
2023-03-04T01:03:25.745Z,1.26
2023-03-04T01:08:47.791Z,1.01
2023-03-04T01:14:10.003Z,1.08
2023-03-04T01:19:31.856Z,1.15
2023-03-04T01:24:53.730Z,1.11
2023-03-04T01:30:15.621Z,1.16
2023-03-04T01:35:37.546Z,1.02
2023-03-04T01:40:59.486Z,0.93
2023-03-04T01:46:21.529Z,1.12
2023-03-04T01:51:46.767Z,1.07
2023-03-04T01:57:26.261Z,0.67
2023-03-04T02:02:51.737Z,1.00
2023-03-04T02:08:15.185Z,1.01
2023-03-04T02:13:37.239Z,0.99
2023-03-04T02:18:59.740Z,0.99
2023-03-04T02:24:32.685Z,1.12
2023-03-04T02:29:54.789Z,1.15
2023-03-04T02:35:18.819Z,1.18
2023-03-04T02:40:46.124Z,1.13
2023-03-04T02:46:12.551Z,1.16
2023-03-04T02:51:34.336Z,1.01
2023-03-04T02:56:59.687Z,1.30
2023-03-04T03:02:21.552Z,1.23
2023-03-04T03:07:43.501Z,1.32
2023-03-04T03:13:05.397Z,1.33
2023-03-04T03:18:27.244Z,1.47
2023-03-04T03:23:49.556Z,1.28
2023-03-04T03:29:11.577Z,1.36
2023-03-04T03:34:33.407Z,1.51
2023-03-04T03:39:55.291Z,1.64
2023-03-04T03:45:17.209Z,1.52
2023-03-04T03:50:39.092Z,1.69
2023-03-04T03:56:00.979Z,1.70
2023-03-04T04:01:22.858Z,1.83
2023-03-04T04:06:44.767Z,1.56
2023-03-04T04:12:07.297Z,1.73
2023-03-04T04:17:29.137Z,1.84
2023-03-04T04:22:51.024Z,1.76
2023-03-04T04:28:12.957Z,1.83
2023-03-04T04:33:35.631Z,1.97
2023-03-04T04:38:57.582Z,2.10
2023-03-04T04:44:19.446Z,2.09
2023-03-04T04:49:41.292Z,2.16
2023-03-04T04:55:03.892Z,2.12
2023-03-04T05:00:25.883Z,2.10
2023-03-04T05:05:48.674Z,2.09
2023-03-04T05:11:10.565Z,2.15
2023-03-04T05:16:32.468Z,2.10
2023-03-04T05:21:54.415Z,2.07
2023-03-04T05:27:16.253Z,2.15
2023-03-04T05:32:38.291Z,2.05
2023-03-04T05:38:00.130Z,2.09
2023-03-04T05:43:22.032Z,2.13
2023-03-04T05:48:44.785Z,2.17
2023-03-04T05:54:06.627Z,2.22
2023-03-04T05:59:28.795Z,2.24
2023-03-04T06:04:50.685Z,2.20
2023-03-04T06:10:15.156Z,2.13
2023-03-04T06:15:37.966Z,2.20
2023-03-04T06:21:02.284Z,2.27
2023-03-04T06:26:24.123Z,2.22
2023-03-04T06:31:46.067Z,2.26
2023-03-04T06:37:07.904Z,2.34
2023-03-04T06:42:29.831Z,2.36
2023-03-04T06:47:51.677Z,2.49
2023-03-04T06:53:13.538Z,2.27
2023-03-04T06:58:35.472Z,2.43
2023-03-04T07:03:57.892Z,2.33
2023-03-04T07:09:19.949Z,2.20
2023-03-04T07:14:41.915Z,2.42
2023-03-04T07:20:05.136Z,2.61
2023-03-04T07:25:27.051Z,2.62
2023-03-04T07:30:48.949Z,2.62
2023-03-04T07:36:10.840Z,2.62
2023-03-04T07:41:33.154Z,2.55
2023-03-04T07:46:55.008Z,2.59
2023-03-04T07:52:17.014Z,2.77
2023-03-04T07:57:40.001Z,2.68
2023-03-04T08:03:01.887Z,2.95
2023-03-04T08:08:23.818Z,2.91
2023-03-04T08:13:46.351Z,2.95
2023-03-04T08:19:08.661Z,2.86
2023-03-04T08:24:30.538Z,3.02
2023-03-04T08:29:52.439Z,3.12
2023-03-04T08:35:14.324Z,3.23
2023-03-04T08:40:36.144Z,2.95
2023-03-04T08:45:58.206Z,3.07
2023-03-04T08:51:20.363Z,3.01
2023-03-04T08:56:42.289Z,3.15
2023-03-04T09:02:04.281Z,3.29
2023-03-04T09:07:26.199Z,3.13
2023-03-04T09:12:48.042Z,3.68
2023-03-04T09:18:09.939Z,3.58
2023-03-04T09:23:31.822Z,3.83
2023-03-04T09:28:59.194Z,4.02
2023-03-04T09:34:21.021Z,4.11
2023-03-04T09:39:42.832Z,3.73
2023-03-04T09:45:08.318Z,3.75
2023-03-04T09:50:34.328Z,3.60
2023-03-04T09:55:56.377Z,3.86
2023-03-04T10:01:31.254Z,3.70
2023-03-04T10:06:53.414Z,3.75
2023-03-04T10:12:20.429Z,3.84
2023-03-04T10:17:46.995Z,3.61
2023-03-04T10:23:11.612Z,3.69
2023-03-04T10:28:35.384Z,3.98
2023-03-04T10:33:57.286Z,4.01
2023-03-04T10:39:22.975Z,4.23
2023-03-04T10:44:53.681Z,4.18
2023-03-04T10:50:28.356Z,4.54
2023-03-04T10:55:50.326Z,3.85
2023-03-04T11:01:16.132Z,4.18
2023-03-04T11:06:41.074Z,4.12
2023-03-04T11:12:09.722Z,4.13
2023-03-04T11:17:47.170Z,4.37
2023-03-04T11:28:39.708Z,3.85
2023-03-04T11:34:07.932Z,3.83
2023-03-04T11:39:35.859Z,3.74
2023-03-04T11:44:57.792Z,4.03
2023-03-04T11:50:31.625Z,3.72
2023-03-04T11:56:05.424Z,4.14
2023-03-04T12:01:37.938Z,4.13
2023-03-04T12:07:03.719Z,4.35
2023-03-04T12:12:33.183Z,4.31
2023-03-04T12:17:58.185Z,4.42
2023-03-04T12:23:28.916Z,4.54
2023-03-04T12:28:55.762Z,4.84
2023-03-04T12:34:33.203Z,5.27
2023-03-04T12:40:00.809Z,5.39
2023-03-04T12:45:32.842Z,5.89
2023-03-04T12:50:57.715Z,6.10
2023-03-04T12:56:39.459Z,6.18
2023-03-04T13:02:29.681Z,6.28
2023-03-04T13:08:13.084Z,6.50
2023-03-04T13:13:41.474Z,6.20
2023-03-04T13:19:03.393Z,6.69
2023-03-04T13:24:45.068Z,6.32
2023-03-04T13:30:32.428Z,6.11
2023-03-04T13:35:57.250Z,6.18
2023-03-04T13:41:23.957Z,4.53
2023-03-04T13:46:45.998Z,3.93
2023-03-04T13:52:42.466Z,3.43
2023-03-04T13:58:26.654Z,3.84
2023-03-04T14:03:48.674Z,3.93
2023-03-04T14:09:20.030Z,3.71
2023-03-04T14:14:44.469Z,4.05
2023-03-04T14:20:41.855Z,4.16
2023-03-04T14:26:18.331Z,4.00
2023-03-04T14:31:40.263Z,4.05
2023-03-04T14:37:03.581Z,4.13
2023-03-04T14:42:36.099Z,4.19
2023-03-04T14:48:04.905Z,4.51
2023-03-04T14:53:29.864Z,4.63
2023-03-04T14:58:54.937Z,4.59
2023-03-04T15:04:19.584Z,4.63
2023-03-04T15:09:41.917Z,4.61
2023-03-04T15:15:50.214Z,4.65
2023-03-04T15:21:21.158Z,4.54
2023-03-04T15:26:44.019Z,4.37
2023-03-04T15:32:05.918Z,3.94
2023-03-04T15:37:29.377Z,3.25
2023-03-04T15:42:51.560Z,2.62
2023-03-04T15:48:15.706Z,2.48
2023-03-04T15:53:40.664Z,2.16
2023-03-04T15:59:14.516Z,2.04
2023-03-04T16:04:36.355Z,2.12
2023-03-04T16:10:05.150Z,1.88
2023-03-04T16:15:29.347Z,1.74
2023-03-04T16:20:51.535Z,1.63
2023-03-04T16:26:16.248Z,1.37
2023-03-04T16:31:38.294Z,1.40
2023-03-04T16:37:06.732Z,1.35
2023-03-04T16:42:28.640Z,1.13
2023-03-04T16:47:51.262Z,1.13
2023-03-04T16:53:24.977Z,0.93
2023-03-04T16:58:47.058Z,0.79
2023-03-04T17:04:08.900Z,0.78
2023-03-04T17:09:30.778Z,0.73
2023-03-04T17:14:52.715Z,0.78
2023-03-04T17:20:17.695Z,0.67
2023-03-04T17:25:39.857Z,0.78
2023-03-04T17:31:01.934Z,0.57
2023-03-04T17:36:23.822Z,0.61
2023-03-04T17:41:45.745Z,0.51
2023-03-04T17:47:08.220Z,0.32
2023-03-04T17:52:30.045Z,0.26
2023-03-04T17:57:51.848Z,0.29
2023-03-04T18:03:14.251Z,0.14
2023-03-04T18:08:36.068Z,-0.14
2023-03-04T18:13:57.947Z,-0.14
2023-03-04T18:19:19.829Z,-0.11
2023-03-04T18:24:41.666Z,-0.21
2023-03-04T18:30:03.794Z,-0.27
2023-03-04T18:35:26.115Z,-0.27
2023-03-04T18:40:47.984Z,-0.27
2023-03-04T18:46:18.638Z,-0.24
2023-03-04T18:51:40.542Z,-0.24
2023-03-04T18:57:09.356Z,-0.44
2023-03-04T19:02:43.186Z,-0.33
2023-03-04T19:08:05.038Z,-0.39
2023-03-04T19:13:29.490Z,-0.48
2023-03-04T19:18:52.756Z,-0.52
2023-03-04T19:24:14.633Z,-0.60
2023-03-04T19:29:36.581Z,-0.69
2023-03-04T19:34:58.415Z,-0.83
2023-03-04T19:40:20.794Z,-0.79
2023-03-04T19:45:42.661Z,-0.95
2023-03-04T19:51:13.136Z,-0.98
2023-03-04T19:56:35.020Z,-1.15
2023-03-04T20:01:56.825Z,-1.14
2023-03-04T20:07:18.635Z,-1.22
2023-03-04T20:12:40.481Z,-1.35
2023-03-04T20:18:04.729Z,-1.26
2023-03-04T20:23:29.183Z,-1.37
2023-03-04T20:28:51.538Z,-1.39
2023-03-04T20:34:14.207Z,-1.40
2023-03-04T20:39:36.079Z,-1.40
2023-03-04T20:44:57.947Z,-1.46
2023-03-04T20:50:19.906Z,-1.49
2023-03-04T20:55:41.707Z,-1.46
2023-03-04T21:01:03.669Z,-1.53
2023-03-04T21:06:25.849Z,-1.53
2023-03-04T21:11:48.382Z,-1.59
2023-03-04T21:17:10.935Z,-1.56
2023-03-04T21:22:32.794Z,-1.65
2023-03-04T21:27:54.660Z,-1.74
2023-03-04T21:33:18.510Z,-1.62
2023-03-04T21:38:42.192Z,-1.65
2023-03-04T21:44:04.095Z,-1.65
2023-03-04T21:49:26.489Z,-1.61
2023-03-04T21:54:48.684Z,-1.69
2023-03-04T22:00:11.238Z,-1.72
2023-03-04T22:05:33.140Z,-1.76
2023-03-04T22:10:55.033Z,-1.79
2023-03-04T22:16:16.891Z,-1.97
2023-03-04T22:21:38.754Z,-1.85
2023-03-04T22:27:00.893Z,-1.92
2023-03-04T22:32:22.760Z,-1.99
2023-03-04T22:37:45.250Z,-2.08
2023-03-04T22:43:07.165Z,-1.94
2023-03-04T22:48:29.100Z,-1.99
2023-03-04T22:53:51.331Z,-2.00
2023-03-04T22:59:13.766Z,-2.01
2023-03-04T23:04:35.655Z,-2.06
2023-03-04T23:09:57.536Z,-2.02
2023-03-04T23:15:19.972Z,-1.97
2023-03-04T23:20:41.838Z,-1.95
2023-03-04T23:26:04.445Z,-1.95
2023-03-04T23:31:26.357Z,-2.07
2023-03-04T23:36:48.226Z,-2.06
2023-03-04T23:42:10.099Z,-2.14
2023-03-04T23:47:31.953Z,-2.02
2023-03-04T23:52:53.794Z,-1.94
2023-03-04T23:58:15.819Z,-2.01
